Saint Marie, Montana
Current Conditions -  °F | °C
As of 9:53 AM on Friday 28 Nov 2014 (Local Time) from KGGW Reporting Station
Haze Haze  
Wind Chill:   Ceiling: 300
Heat Index: 20°   Visibility: 2.5mi
Dew Point: 17°   Wind: 15mph
Humidity: 89%   Direction: 110°ESE
Pressure: 29.51"   Gusts: NA
Location:  48.4°N, 106.55°W
Report Text: KGGW 281653Z AUTO 11013KT 2 1/2SM BR OVC003 M07/M08 A2951 RMK AO2 SLP027 T10671083
Loading
Personal Weather Stations






























Interactive Weather Map New forecast layout! Learn more

10-Day Weather Forecast

Advertisements
Track Severe Weather on mobile